sensor_id;sensor_type;location;lat;lon;timestamp;pressure;altitude;pressure_sealevel;temperature;humidity
9462;BME280;4769;42.660;23.262;2023-03-25T00:01:58;93711.41;;;11.89;73.74
9462;BME280;4769;42.660;23.262;2023-03-25T00:04:24;93718.84;;;11.92;73.75
9462;BME280;4769;42.660;23.262;2023-03-25T00:06:53;93719.06;;;11.86;74.08
9462;BME280;4769;42.660;23.262;2023-03-25T00:09:18;93725.44;;;11.95;73.63
9462;BME280;4769;42.660;23.262;2023-03-25T00:11:44;93716.91;;;11.78;73.95
9462;BME280;4769;42.660;23.262;2023-03-25T00:14:10;93721.94;;;11.79;74.34
9462;BME280;4769;42.660;23.262;2023-03-25T00:16:35;93717.97;;;11.77;74.58
9462;BME280;4769;42.660;23.262;2023-03-25T00:19:01;93715.63;;;11.85;74.35
9462;BME280;4769;42.660;23.262;2023-03-25T00:21:27;93701.03;;;11.73;74.33
9462;BME280;4769;42.660;23.262;2023-03-25T00:23:55;93694.69;;;11.74;74.86
9462;BME280;4769;42.660;23.262;2023-03-25T00:26:21;93703.94;;;11.71;75.18
9462;BME280;4769;42.660;23.262;2023-03-25T00:28:46;93696.31;;;11.80;75.01
9462;BME280;4769;42.660;23.262;2023-03-25T00:31:13;93691.88;;;11.90;74.14
9462;BME280;4769;42.660;23.262;2023-03-25T00:33:39;93693.44;;;11.91;73.99
9462;BME280;4769;42.660;23.262;2023-03-25T00:36:06;93696.59;;;11.83;74.23
9462;BME280;4769;42.660;23.262;2023-03-25T00:38:33;93698.97;;;11.85;73.79
9462;BME280;4769;42.660;23.262;2023-03-25T00:41:10;93697.09;;;11.80;74.06
9462;BME280;4769;42.660;23.262;2023-03-25T00:43:36;93704.25;;;11.85;73.75
9462;BME280;4769;42.660;23.262;2023-03-25T00:46:02;93692.31;;;11.77;74.51
9462;BME280;4769;42.660;23.262;2023-03-25T00:48:28;93696.28;;;11.75;75.02
9462;BME280;4769;42.660;23.262;2023-03-25T00:50:54;93686.44;;;11.60;75.25
9462;BME280;4769;42.660;23.262;2023-03-25T00:53:20;93684.63;;;11.66;74.64
9462;BME280;4769;42.660;23.262;2023-03-25T00:55:45;93693.50;;;11.55;75.06
9462;BME280;4769;42.660;23.262;2023-03-25T00:58:14;93686.66;;;11.54;75.21
9462;BME280;4769;42.660;23.262;2023-03-25T01:00:39;93675.28;;;11.53;75.26
9462;BME280;4769;42.660;23.262;2023-03-25T01:03:05;93667.63;;;11.57;75.30
9462;BME280;4769;42.660;23.262;2023-03-25T01:05:31;93682.50;;;11.63;74.65
9462;BME280;4769;42.660;23.262;2023-03-25T01:07:56;93667.44;;;11.63;74.02
9462;BME280;4769;42.660;23.262;2023-03-25T01:10:22;93662.97;;;11.69;73.87
9462;BME280;4769;42.660;23.262;2023-03-25T01:12:48;93662.69;;;11.60;74.67
9462;BME280;4769;42.660;23.262;2023-03-25T01:15:16;93661.88;;;11.60;74.76
9462;BME280;4769;42.660;23.262;2023-03-25T01:17:42;93658.19;;;11.66;74.27
9462;BME280;4769;42.660;23.262;2023-03-25T01:20:10;93658.66;;;11.48;74.60
9462;BME280;4769;42.660;23.262;2023-03-25T01:22:36;93655.25;;;11.57;74.40
9462;BME280;4769;42.660;23.262;2023-03-25T01:25:03;93651.00;;;11.51;74.51
9462;BME280;4769;42.660;23.262;2023-03-25T01:27:29;93642.00;;;11.47;74.99
9462;BME280;4769;42.660;23.262;2023-03-25T01:29:55;93647.53;;;11.46;75.41
9462;BME280;4769;42.660;23.262;2023-03-25T01:32:23;93638.03;;;11.50;74.68
9462;BME280;4769;42.660;23.262;2023-03-25T01:34:49;93641.75;;;11.54;74.94
9462;BME280;4769;42.660;23.262;2023-03-25T01:37:14;93633.50;;;11.40;75.41
9462;BME280;4769;42.660;23.262;2023-03-25T01:39:40;93638.28;;;11.43;74.93
9462;BME280;4769;42.660;23.262;2023-03-25T01:42:06;93631.72;;;11.51;74.97
9462;BME280;4769;42.660;23.262;2023-03-25T01:47:30;93631.06;;;11.29;75.98
9462;BME280;4769;42.660;23.262;2023-03-25T01:49:56;93633.66;;;11.19;76.28
9462;BME280;4769;42.660;23.262;2023-03-25T01:52:24;93632.06;;;11.18;76.54
9462;BME280;4769;42.660;23.262;2023-03-25T01:54:52;93635.19;;;11.10;76.52
9462;BME280;4769;42.660;23.262;2023-03-25T01:57:21;93630.06;;;11.35;75.50
9462;BME280;4769;42.660;23.262;2023-03-25T01:59:49;93632.94;;;11.33;75.77
9462;BME280;4769;42.660;23.262;2023-03-25T02:02:16;93628.16;;;11.30;75.97
9462;BME280;4769;42.660;23.262;2023-03-25T02:04:59;93621.56;;;11.28;76.07
9462;BME280;4769;42.660;23.262;2023-03-25T02:07:27;93631.56;;;11.21;76.73
9462;BME280;4769;42.660;23.262;2023-03-25T02:09:53;93625.22;;;11.22;76.97
9462;BME280;4769;42.660;23.262;2023-03-25T02:12:19;93631.22;;;11.12;77.06
9462;BME280;4769;42.660;23.262;2023-03-25T02:14:44;93622.72;;;11.00;77.33
9462;BME280;4769;42.660;23.262;2023-03-25T02:17:16;93622.50;;;11.07;77.33
9462;BME280;4769;42.660;23.262;2023-03-25T02:20:11;93619.06;;;11.06;77.37
9462;BME280;4769;42.660;23.262;2023-03-25T02:26:18;93615.34;;;11.02;77.61
9462;BME280;4769;42.660;23.262;2023-03-25T02:28:54;93623.81;;;11.04;77.77
9462;BME280;4769;42.660;23.262;2023-03-25T02:31:34;93615.09;;;11.04;77.84
9462;BME280;4769;42.660;23.262;2023-03-25T02:37:17;93614.25;;;10.98;77.78
9462;BME280;4769;42.660;23.262;2023-03-25T02:39:50;93608.22;;;10.98;77.92
9462;BME280;4769;42.660;23.262;2023-03-25T02:42:23;93612.16;;;10.95;77.62
9462;BME280;4769;42.660;23.262;2023-03-25T02:44:54;93606.63;;;10.97;77.29
9462;BME280;4769;42.660;23.262;2023-03-25T02:47:24;93616.16;;;11.03;77.11
9462;BME280;4769;42.660;23.262;2023-03-25T02:49:54;93609.28;;;11.02;77.06
9462;BME280;4769;42.660;23.262;2023-03-25T02:52:24;93600.56;;;11.01;77.04
9462;BME280;4769;42.660;23.262;2023-03-25T02:54:56;93610.06;;;11.02;77.20
9462;BME280;4769;42.660;23.262;2023-03-25T02:57:25;93597.91;;;10.96;77.45
9462;BME280;4769;42.660;23.262;2023-03-25T02:59:52;93597.06;;;10.91;77.54
9462;BME280;4769;42.660;23.262;2023-03-25T03:02:20;93595.75;;;10.93;77.51
9462;BME280;4769;42.660;23.262;2023-03-25T03:04:47;93604.97;;;10.91;77.63
9462;BME280;4769;42.660;23.262;2023-03-25T03:07:22;93594.88;;;10.78;77.85
9462;BME280;4769;42.660;23.262;2023-03-25T03:09:56;93590.66;;;10.77;78.20
9462;BME280;4769;42.660;23.262;2023-03-25T03:12:35;93585.69;;;10.80;77.93
9462;BME280;4769;42.660;23.262;2023-03-25T03:15:14;93598.06;;;10.80;77.76
9462;BME280;4769;42.660;23.262;2023-03-25T03:17:47;93599.91;;;10.79;77.72
9462;BME280;4769;42.660;23.262;2023-03-25T03:20:17;93602.50;;;10.74;77.96
9462;BME280;4769;42.660;23.262;2023-03-25T03:22:47;93586.41;;;10.71;77.77
9462;BME280;4769;42.660;23.262;2023-03-25T03:25:26;93609.88;;;10.72;77.91
9462;BME280;4769;42.660;23.262;2023-03-25T03:27:57;93613.56;;;10.71;77.98
9462;BME280;4769;42.660;23.262;2023-03-25T03:30:28;93607.00;;;10.74;77.72
9462;BME280;4769;42.660;23.262;2023-03-25T03:33:01;93607.97;;;10.68;77.96
9462;BME280;4769;42.660;23.262;2023-03-25T03:35:30;93600.78;;;10.53;78.56
9462;BME280;4769;42.660;23.262;2023-03-25T03:38:00;93603.94;;;10.55;78.30
9462;BME280;4769;42.660;23.262;2023-03-25T03:40:32;93613.44;;;10.56;78.08
9462;BME280;4769;42.660;23.262;2023-03-25T03:43:01;93598.94;;;10.59;78.08
9462;BME280;4769;42.660;23.262;2023-03-25T03:45:32;93606.66;;;10.65;77.96
9462;BME280;4769;42.660;23.262;2023-03-25T03:48:05;93612.69;;;10.61;77.60
9462;BME280;4769;42.660;23.262;2023-03-25T03:50:35;93617.66;;;10.52;77.74
9462;BME280;4769;42.660;23.262;2023-03-25T03:53:07;93621.06;;;10.53;77.97
9462;BME280;4769;42.660;23.262;2023-03-25T03:55:40;93615.00;;;10.52;78.14
9462;BME280;4769;42.660;23.262;2023-03-25T03:58:10;93617.66;;;10.52;77.86
9462;BME280;4769;42.660;23.262;2023-03-25T04:00:42;93616.63;;;10.58;77.54
9462;BME280;4769;42.660;23.262;2023-03-25T04:03:13;93611.63;;;10.62;76.95
9462;BME280;4769;42.660;23.262;2023-03-25T04:05:42;93611.63;;;10.62;76.96
9462;BME280;4769;42.660;23.262;2023-03-25T04:08:13;93613.53;;;10.66;77.03
9462;BME280;4769;42.660;23.262;2023-03-25T04:10:50;93612.16;;;10.64;76.62
9462;BME280;4769;42.660;23.262;2023-03-25T04:13:19;93615.84;;;10.63;76.98
9462;BME280;4769;42.660;23.262;2023-03-25T04:15:46;93605.03;;;10.59;77.25
9462;BME280;4769;42.660;23.262;2023-03-25T04:18:12;93606.91;;;10.64;76.81
9462;BME280;4769;42.660;23.262;2023-03-25T04:20:38;93604.81;;;10.66;76.58
9462;BME280;4769;42.660;23.262;2023-03-25T04:23:04;93593.72;;;10.64;76.57
9462;BME280;4769;42.660;23.262;2023-03-25T04:25:30;93598.28;;;10.73;76.27
9462;BME280;4769;42.660;23.262;2023-03-25T04:27:59;93588.22;;;10.70;76.09
9462;BME280;4769;42.660;23.262;2023-03-25T04:30:25;93603.84;;;10.77;76.14
9462;BME280;4769;42.660;23.262;2023-03-25T04:32:51;93604.84;;;10.71;76.58
9462;BME280;4769;42.660;23.262;2023-03-25T04:35:17;93607.97;;;10.68;77.35
9462;BME280;4769;42.660;23.262;2023-03-25T04:37:43;93611.97;;;10.70;77.03
9462;BME280;4769;42.660;23.262;2023-03-25T04:40:10;93613.31;;;10.78;76.86
9462;BME280;4769;42.660;23.262;2023-03-25T04:42:36;93619.69;;;10.82;76.54
9462;BME280;4769;42.660;23.262;2023-03-25T04:45:07;93599.91;;;10.79;76.53
9462;BME280;4769;42.660;23.262;2023-03-25T04:47:34;93614.41;;;10.82;75.60
9462;BME280;4769;42.660;23.262;2023-03-25T04:50:01;93608.41;;;10.86;76.04
9462;BME280;4769;42.660;23.262;2023-03-25T04:52:26;93608.16;;;10.88;76.33
9462;BME280;4769;42.660;23.262;2023-03-25T04:54:52;93616.91;;;10.98;75.29
9462;BME280;4769;42.660;23.262;2023-03-25T04:57:18;93627.03;;;11.16;74.80
9462;BME280;4769;42.660;23.262;2023-03-25T04:59:43;93619.44;;;11.20;74.03
9462;BME280;4769;42.660;23.262;2023-03-25T05:02:12;93617.34;;;11.27;73.82
9462;BME280;4769;42.660;23.262;2023-03-25T05:04:38;93611.28;;;11.31;73.79
9462;BME280;4769;42.660;23.262;2023-03-25T05:07:04;93604.72;;;11.34;73.36
9462;BME280;4769;42.660;23.262;2023-03-25T05:09:30;93613.59;;;11.59;73.38
9462;BME280;4769;42.660;23.262;2023-03-25T05:11:55;93606.91;;;11.57;72.51
9462;BME280;4769;42.660;23.262;2023-03-25T05:14:21;93618.34;;;11.67;73.30
9462;BME280;4769;42.660;23.262;2023-03-25T05:16:47;93611.25;;;11.73;72.57
9462;BME280;4769;42.660;23.262;2023-03-25T05:19:16;93601.78;;;11.82;71.32
9462;BME280;4769;42.660;23.262;2023-03-25T05:21:42;93609.22;;;11.95;70.97
9462;BME280;4769;42.660;23.262;2023-03-25T05:24:09;93622.94;;;12.02;71.06
9462;BME280;4769;42.660;23.262;2023-03-25T05:26:36;93618.22;;;12.04;71.31
9462;BME280;4769;42.660;23.262;2023-03-25T05:29:03;93606.31;;;12.06;71.23
9462;BME280;4769;42.660;23.262;2023-03-25T05:31:29;93614.28;;;12.16;70.66
9462;BME280;4769;42.660;23.262;2023-03-25T05:33:55;93610.31;;;12.24;69.95
9462;BME280;4769;42.660;23.262;2023-03-25T05:36:24;93618.00;;;12.30;70.85
9462;BME280;4769;42.660;23.262;2023-03-25T05:38:51;93618.25;;;12.44;70.60
9462;BME280;4769;42.660;23.262;2023-03-25T05:41:16;93602.94;;;12.41;70.51
9462;BME280;4769;42.660;23.262;2023-03-25T05:43:42;93620.41;;;12.62;69.87
9462;BME280;4769;42.660;23.262;2023-03-25T05:46:08;93618.81;;;12.71;70.38
9462;BME280;4769;42.660;23.262;2023-03-25T05:48:34;93613.00;;;12.69;71.27
9462;BME280;4769;42.660;23.262;2023-03-25T05:51:02;93610.88;;;12.76;70.91
9462;BME280;4769;42.660;23.262;2023-03-25T05:53:31;93625.16;;;12.90;70.32
9462;BME280;4769;42.660;23.262;2023-03-25T05:55:57;93627.28;;;12.93;69.21
9462;BME280;4769;42.660;23.262;2023-03-25T05:58:22;93617.78;;;12.97;68.44
9462;BME280;4769;42.660;23.262;2023-03-25T06:00:48;93614.59;;;13.00;67.08
9462;BME280;4769;42.660;23.262;2023-03-25T06:03:14;93617.75;;;13.12;66.09
9462;BME280;4769;42.660;23.262;2023-03-25T06:05:40;93623.00;;;13.27;65.29
9462;BME280;4769;42.660;23.262;2023-03-25T06:08:06;93620.09;;;13.33;65.04
9462;BME280;4769;42.660;23.262;2023-03-25T06:10:34;93603.38;;;13.38;65.14
9462;BME280;4769;42.660;23.262;2023-03-25T06:13:01;93613.16;;;13.52;65.45
9462;BME280;4769;42.660;23.262;2023-03-25T06:15:27;93612.84;;;13.64;65.80
9462;BME280;4769;42.660;23.262;2023-03-25T06:17:53;93607.03;;;13.62;64.81
9462;BME280;4769;42.660;23.262;2023-03-25T06:20:19;93592.13;;;13.81;64.12
9462;BME280;4769;42.660;23.262;2023-03-25T06:22:45;93597.91;;;13.88;63.29
9462;BME280;4769;42.660;23.262;2023-03-25T06:25:12;93608.41;;;14.03;62.75
9462;BME280;4769;42.660;23.262;2023-03-25T06:27:41;93601.81;;;14.00;62.47
9462;BME280;4769;42.660;23.262;2023-03-25T06:30:08;93604.13;;;14.12;62.43
9462;BME280;4769;42.660;23.262;2023-03-25T06:32:34;93609.91;;;14.29;61.46
9462;BME280;4769;42.660;23.262;2023-03-25T06:35:00;93616.22;;;14.38;60.85
9462;BME280;4769;42.660;23.262;2023-03-25T06:37:25;93610.06;;;14.43;61.15
9462;BME280;4769;42.660;23.262;2023-03-25T06:39:54;93616.66;;;14.50;60.47
9462;BME280;4769;42.660;23.262;2023-03-25T06:42:19;93608.69;;;14.50;60.54
9462;BME280;4769;42.660;23.262;2023-03-25T06:44:48;93615.00;;;14.59;60.85
9462;BME280;4769;42.660;23.262;2023-03-25T06:47:13;93623.66;;;14.75;60.13
9462;BME280;4769;42.660;23.262;2023-03-25T06:49:39;93612.63;;;14.91;61.39
9462;BME280;4769;42.660;23.262;2023-03-25T06:52:05;93620.88;;;14.90;60.93
9462;BME280;4769;42.660;23.262;2023-03-25T06:54:31;93624.28;;;14.95;60.51
9462;BME280;4769;42.660;23.262;2023-03-25T06:56:57;93625.75;;;15.11;60.02
9462;BME280;4769;42.660;23.262;2023-03-25T06:59:23;93623.16;;;15.30;59.46
9462;BME280;4769;42.660;23.262;2023-03-25T07:01:52;93627.91;;;15.38;59.29
9462;BME280;4769;42.660;23.262;2023-03-25T07:04:18;93617.41;;;15.51;58.63
9462;BME280;4769;42.660;23.262;2023-03-25T07:06:44;93629.47;;;15.67;58.62
9462;BME280;4769;42.660;23.262;2023-03-25T07:09:09;93619.53;;;15.73;58.29
9462;BME280;4769;42.660;23.262;2023-03-25T07:11:35;93620.78;;;15.80;58.54
9462;BME280;4769;42.660;23.262;2023-03-25T07:14:01;93613.31;;;15.59;59.13
9462;BME280;4769;42.660;23.262;2023-03-25T07:16:27;93613.94;;;15.74;60.13
9462;BME280;4769;42.660;23.262;2023-03-25T07:18:55;93619.66;;;15.86;59.73
9462;BME280;4769;42.660;23.262;2023-03-25T07:21:21;93600.25;;;16.09;63.89
9462;BME280;4769;42.660;23.262;2023-03-25T07:23:47;93609.75;;;16.71;64.16
9462;BME280;4769;42.660;23.262;2023-03-25T07:26:13;93609.06;;;16.65;57.57
9462;BME280;4769;42.660;23.262;2023-03-25T07:28:39;93616.16;;;16.70;56.58
9462;BME280;4769;42.660;23.262;2023-03-25T07:31:06;93618.38;;;16.81;56.15
9462;BME280;4769;42.660;23.262;2023-03-25T07:33:32;93621.97;;;17.22;62.03
9462;BME280;4769;42.660;23.262;2023-03-25T07:36:01;93613.56;;;17.47;54.82
9462;BME280;4769;42.660;23.262;2023-03-25T07:38:27;93610.88;;;17.15;54.00
9462;BME280;4769;42.660;23.262;2023-03-25T07:40:52;93615.38;;;17.33;54.59
9462;BME280;4769;42.660;23.262;2023-03-25T07:43:20;93604.63;;;17.38;53.96
9462;BME280;4769;42.660;23.262;2023-03-25T07:45:46;93600.03;;;17.57;53.94
9462;BME280;4769;42.660;23.262;2023-03-25T07:48:12;93593.44;;;17.95;53.12
9462;BME280;4769;42.660;23.262;2023-03-25T07:50:38;93606.47;;;18.37;54.13
9462;BME280;4769;42.660;23.262;2023-03-25T07:53:07;93595.50;;;18.61;51.99
9462;BME280;4769;42.660;23.262;2023-03-25T07:55:34;93582.44;;;18.59;51.08
9462;BME280;4769;42.660;23.262;2023-03-25T07:57:59;93581.50;;;18.77;49.82
9462;BME280;4769;42.660;23.262;2023-03-25T08:00:25;93583.38;;;18.55;50.44
9462;BME280;4769;42.660;23.262;2023-03-25T08:02:51;93584.78;;;18.74;50.57
9462;BME280;4769;42.660;23.262;2023-03-25T08:05:17;93568.56;;;18.93;50.13
9462;BME280;4769;42.660;23.262;2023-03-25T08:07:43;93557.66;;;19.25;49.37
9462;BME280;4769;42.660;23.262;2023-03-25T08:10:11;93572.25;;;19.49;48.61
9462;BME280;4769;42.660;23.262;2023-03-25T08:12:37;93573.63;;;19.77;47.42
9462;BME280;4769;42.660;23.262;2023-03-25T08:15:04;93562.94;;;19.86;46.58
9462;BME280;4769;42.660;23.262;2023-03-25T08:17:29;93564.75;;;20.16;46.33
9462;BME280;4769;42.660;23.262;2023-03-25T08:19:58;93557.88;;;20.40;45.70
9462;BME280;4769;42.660;23.262;2023-03-25T08:22:23;93559.50;;;20.75;44.98
9462;BME280;4769;42.660;23.262;2023-03-25T08:24:49;93550.03;;;21.03;44.24
9462;BME280;4769;42.660;23.262;2023-03-25T08:27:18;93557.22;;;21.28;46.67
9462;BME280;4769;42.660;23.262;2023-03-25T08:29:44;93554.34;;;21.50;43.56
9462;BME280;4769;42.660;23.262;2023-03-25T08:32:10;93549.00;;;21.33;42.14
9462;BME280;4769;42.660;23.262;2023-03-25T08:34:39;93550.94;;;21.16;43.37
9462;BME280;4769;42.660;23.262;2023-03-25T08:37:05;93552.50;;;21.25;43.49
9462;BME280;4769;42.660;23.262;2023-03-25T08:39:31;93542.59;;;21.17;43.67
9462;BME280;4769;42.660;23.262;2023-03-25T08:41:56;93536.91;;;21.19;43.07
9462;BME280;4769;42.660;23.262;2023-03-25T08:44:25;93536.75;;;21.24;43.30
9462;BME280;4769;42.660;23.262;2023-03-25T08:46:51;93542.03;;;21.41;42.72
9462;BME280;4769;42.660;23.262;2023-03-25T08:49:16;93529.03;;;21.05;43.07
9462;BME280;4769;42.660;23.262;2023-03-25T08:51:42;93539.63;;;20.76;43.81
9462;BME280;4769;42.660;23.262;2023-03-25T08:54:08;93539.47;;;20.56;44.84
9462;BME280;4769;42.660;23.262;2023-03-25T08:56:34;93544.81;;;20.56;45.18
9462;BME280;4769;42.660;23.262;2023-03-25T08:58:59;93539.16;;;20.66;44.57
9462;BME280;4769;42.660;23.262;2023-03-25T09:01:28;93529.38;;;20.61;44.90
9462;BME280;4769;42.660;23.262;2023-03-25T09:03:53;93527.47;;;21.04;43.98
9462;BME280;4769;42.660;23.262;2023-03-25T09:06:19;93524.25;;;21.36;43.36
9462;BME280;4769;42.660;23.262;2023-03-25T09:08:45;93524.69;;;21.47;43.24
9462;BME280;4769;42.660;23.262;2023-03-25T09:11:10;93511.41;;;21.88;42.23
9462;BME280;4769;42.660;23.262;2023-03-25T09:13:36;93529.41;;;22.16;41.28
9462;BME280;4769;42.660;23.262;2023-03-25T09:16:02;93517.81;;;22.53;40.89
9462;BME280;4769;42.660;23.262;2023-03-25T09:18:31;93523.81;;;22.91;39.38
9462;BME280;4769;42.660;23.262;2023-03-25T09:20:57;93511.69;;;23.18;38.72
9462;BME280;4769;42.660;23.262;2023-03-25T09:23:23;93507.25;;;23.22;39.05
9462;BME280;4769;42.660;23.262;2023-03-25T09:25:49;93494.56;;;22.90;39.03
9462;BME280;4769;42.660;23.262;2023-03-25T09:28:15;93518.56;;;22.95;38.68
9462;BME280;4769;42.660;23.262;2023-03-25T09:30:40;93508.94;;;22.73;39.61
9462;BME280;4769;42.660;23.262;2023-03-25T09:33:06;93504.47;;;22.98;39.08
9462;BME280;4769;42.660;23.262;2023-03-25T09:35:35;93512.53;;;23.18;38.74
9462;BME280;4769;42.660;23.262;2023-03-25T09:38:00;93497.22;;;23.43;37.04
9462;BME280;4769;42.660;23.262;2023-03-25T09:40:26;93495.00;;;23.69;36.16
9462;BME280;4769;42.660;23.262;2023-03-25T09:43:02;93503.16;;;23.48;36.64
9462;BME280;4769;42.660;23.262;2023-03-25T09:45:33;93498.22;;;23.62;36.81
9462;BME280;4769;42.660;23.262;2023-03-25T09:48:02;93498.00;;;23.43;36.61
9462;BME280;4769;42.660;23.262;2023-03-25T09:50:29;93496.09;;;23.44;36.47
9462;BME280;4769;42.660;23.262;2023-03-25T09:53:02;93498.00;;;23.43;36.42
9462;BME280;4769;42.660;23.262;2023-03-25T09:55:32;93491.78;;;23.19;37.14
9462;BME280;4769;42.660;23.262;2023-03-25T09:58:04;93495.84;;;23.04;37.23
9462;BME280;4769;42.660;23.262;2023-03-25T10:00:40;93490.47;;;23.04;37.33
9462;BME280;4769;42.660;23.262;2023-03-25T10:03:13;93490.63;;;22.55;36.76
9462;BME280;4769;42.660;23.262;2023-03-25T10:05:59;93493.34;;;22.46;37.04
9462;BME280;4769;42.660;23.262;2023-03-25T10:08:41;93484.63;;;22.90;36.74
9462;BME280;4769;42.660;23.262;2023-03-25T10:11:14;93473.91;;;23.14;36.57
9462;BME280;4769;42.660;23.262;2023-03-25T10:13:50;93462.34;;;23.70;35.33
9462;BME280;4769;42.660;23.262;2023-03-25T10:16:25;93460.56;;;23.62;34.90
9462;BME280;4769;42.660;23.262;2023-03-25T10:19:04;93453.94;;;23.84;34.35
9462;BME280;4769;42.660;23.262;2023-03-25T10:21:38;93455.28;;;23.42;34.06
9462;BME280;4769;42.660;23.262;2023-03-25T10:24:16;93454.16;;;23.43;34.50
9462;BME280;4769;42.660;23.262;2023-03-25T10:26:46;93439.69;;;23.47;33.51
9462;BME280;4769;42.660;23.262;2023-03-25T10:29:15;93442.50;;;23.39;33.71
9462;BME280;4769;42.660;23.262;2023-03-25T10:31:50;93441.25;;;23.48;33.96
9462;BME280;4769;42.660;23.262;2023-03-25T10:34:17;93442.72;;;23.34;33.83
9462;BME280;4769;42.660;23.262;2023-03-25T10:36:46;93430.38;;;23.69;33.61
9462;BME280;4769;42.660;23.262;2023-03-25T10:39:17;93431.63;;;23.83;33.62
9462;BME280;4769;42.660;23.262;2023-03-25T10:41:47;93422.09;;;23.86;33.55
9462;BME280;4769;42.660;23.262;2023-03-25T10:44:14;93411.28;;;24.10;33.70
9462;BME280;4769;42.660;23.262;2023-03-25T10:46:43;93422.31;;;24.05;33.37
9462;BME280;4769;42.660;23.262;2023-03-25T10:49:10;93418.94;;;23.84;33.76
9462;BME280;4769;42.660;23.262;2023-03-25T10:51:37;93420.88;;;23.59;34.37
9462;BME280;4769;42.660;23.262;2023-03-25T10:54:04;93411.75;;;23.28;35.35
9462;BME280;4769;42.660;23.262;2023-03-25T10:56:34;93410.34;;;23.54;35.23
9462;BME280;4769;42.660;23.262;2023-03-25T10:59:05;93405.25;;;24.01;34.97
9462;BME280;4769;42.660;23.262;2023-03-25T11:01:38;93398.56;;;24.90;34.41
9462;BME280;4769;42.660;23.262;2023-03-25T11:04:08;93403.47;;;25.77;32.38
9462;BME280;4769;42.660;23.262;2023-03-25T11:06:37;93396.44;;;25.26;32.06
9462;BME280;4769;42.660;23.262;2023-03-25T11:09:12;93391.63;;;25.20;32.12
9462;BME280;4769;42.660;23.262;2023-03-25T11:11:41;93388.34;;;25.42;31.83
9462;BME280;4769;42.660;23.262;2023-03-25T11:14:07;93383.47;;;26.32;30.69
9462;BME280;4769;42.660;23.262;2023-03-25T11:16:34;93372.63;;;26.13;30.55
9462;BME280;4769;42.660;23.262;2023-03-25T11:19:02;93374.28;;;25.83;29.73
9462;BME280;4769;42.660;23.262;2023-03-25T11:21:32;93373.38;;;26.29;29.57
9462;BME280;4769;42.660;23.262;2023-03-25T11:23:59;93375.69;;;26.11;29.08
9462;BME280;4769;42.660;23.262;2023-03-25T11:26:26;93370.09;;;26.39;29.82
9462;BME280;4769;42.660;23.262;2023-03-25T11:28:59;93359.47;;;25.27;30.12
9462;BME280;4769;42.660;23.262;2023-03-25T11:31:27;93351.19;;;25.35;29.91
9462;BME280;4769;42.660;23.262;2023-03-25T11:34:03;93349.75;;;25.26;30.05
9462;BME280;4769;42.660;23.262;2023-03-25T11:36:31;93345.84;;;25.08;29.66
9462;BME280;4769;42.660;23.262;2023-03-25T11:38:58;93347.41;;;24.93;30.20
9462;BME280;4769;42.660;23.262;2023-03-25T11:41:28;93334.28;;;25.23;29.84
9462;BME280;4769;42.660;23.262;2023-03-25T11:43:57;93346.22;;;25.72;29.46
9462;BME280;4769;42.660;23.262;2023-03-25T11:46:23;93343.84;;;25.20;29.08
9462;BME280;4769;42.660;23.262;2023-03-25T11:48:49;93335.34;;;24.60;30.03
9462;BME280;4769;42.660;23.262;2023-03-25T11:51:19;93335.09;;;24.37;30.01
9462;BME280;4769;42.660;23.262;2023-03-25T11:53:47;93335.38;;;23.80;30.90
9462;BME280;4769;42.660;23.262;2023-03-25T11:56:16;93329.94;;;23.53;30.53
9462;BME280;4769;42.660;23.262;2023-03-25T11:58:44;93326.72;;;23.35;31.51
9462;BME280;4769;42.660;23.262;2023-03-25T12:01:22;93324.25;;;23.18;32.17
9462;BME280;4769;42.660;23.262;2023-03-25T12:03:49;93324.50;;;22.36;32.91
9462;BME280;4769;42.660;23.262;2023-03-25T12:06:17;93326.09;;;21.84;33.56
9462;BME280;4769;42.660;23.262;2023-03-25T12:08:48;93334.25;;;21.67;34.06
9462;BME280;4769;42.660;23.262;2023-03-25T12:11:17;93324.47;;;21.71;34.22
9462;BME280;4769;42.660;23.262;2023-03-25T12:13:55;93322.94;;;21.62;34.44
9462;BME280;4769;42.660;23.262;2023-03-25T12:16:38;93319.44;;;21.61;34.53
9462;BME280;4769;42.660;23.262;2023-03-25T12:19:16;93309.25;;;21.55;34.85
9462;BME280;4769;42.660;23.262;2023-03-25T12:21:57;93317.47;;;21.29;34.85
9462;BME280;4769;42.660;23.262;2023-03-25T12:24:38;93324.47;;;21.42;34.61
9462;BME280;4769;42.660;23.262;2023-03-25T12:27:17;93319.72;;;21.68;34.55
9462;BME280;4769;42.660;23.262;2023-03-25T12:29:52;93319.41;;;21.90;34.06
9462;BME280;4769;42.660;23.262;2023-03-25T12:32:29;93328.41;;;22.59;33.42
9462;BME280;4769;42.660;23.262;2023-03-25T12:35:12;93325.03;;;22.50;33.51
9462;BME280;4769;42.660;23.262;2023-03-25T12:37:55;93331.78;;;22.03;33.28
9462;BME280;4769;42.660;23.262;2023-03-25T12:40:49;93322.13;;;22.23;33.05
9462;BME280;4769;42.660;23.262;2023-03-25T12:43:24;93332.03;;;22.10;33.00
9462;BME280;4769;42.660;23.262;2023-03-25T12:46:07;93321.53;;;22.17;32.97
9462;BME280;4769;42.660;23.262;2023-03-25T12:48:49;93321.66;;;22.21;33.14
9462;BME280;4769;42.660;23.262;2023-03-25T12:51:24;93313.03;;;22.15;32.57
9462;BME280;4769;42.660;23.262;2023-03-25T12:54:01;93316.88;;;21.73;33.51
9462;BME280;4769;42.660;23.262;2023-03-25T12:56:43;93314.81;;;21.50;33.49
9462;BME280;4769;42.660;23.262;2023-03-25T12:59:28;93317.28;;;21.34;33.96
9462;BME280;4769;42.660;23.262;2023-03-25T13:02:04;93326.72;;;21.40;33.96
9462;BME280;4769;42.660;23.262;2023-03-25T13:04:55;93324.13;;;21.23;34.55
9462;BME280;4769;42.660;23.262;2023-03-25T13:07:27;93326.94;;;20.98;34.83
9462;BME280;4769;42.660;23.262;2023-03-25T13:10:02;93318.81;;;20.77;35.68
9462;BME280;4769;42.660;23.262;2023-03-25T13:12:31;93317.50;;;20.83;36.48
9462;BME280;4769;42.660;23.262;2023-03-25T13:15:04;93312.78;;;20.51;37.27
9462;BME280;4769;42.660;23.262;2023-03-25T13:17:36;93324.78;;;20.37;37.22
9462;BME280;4769;42.660;23.262;2023-03-25T13:20:09;93316.00;;;20.19;37.40
9462;BME280;4769;42.660;23.262;2023-03-25T13:22:39;93326.22;;;20.17;37.79
9462;BME280;4769;42.660;23.262;2023-03-25T13:25:07;93323.22;;;20.02;38.83
9462;BME280;4769;42.660;23.262;2023-03-25T13:27:40;93327.50;;;19.94;41.63
9462;BME280;4769;42.660;23.262;2023-03-25T13:30:13;93330.97;;;19.78;42.73